Time;durP1;ratioP1;P1;durP2;ratioP2;P2;SDS_P1;SDS_P2;PMS_P1;PMS_P2;Temp;Humidity;BMP_temperature;BMP_pressure;BME280_temperature;BME280_humidity;BME280_pressure;Samples;Min_cycle;Max_cycle;Signal;HPM_P1;HPM_P2
2022/04/30 00:02:20;;;;;;;11.55;6.32;;;;;;;6.28;84.94;102713.91;5344905;27;21924;-63
2022/04/30 00:04:51;;;;;;;10.52;6.30;;;;;;;6.23;85.22;102707.00;5342891;27;20042;-63
2022/04/30 00:07:23;;;;;;;12.05;6.63;;;;;;;6.13;85.22;102714.34;5346383;27;20037;-64
2022/04/30 00:09:54;;;;;;;11.98;6.32;;;;;;;6.14;85.08;102716.09;5341926;27;20405;-63
2022/04/30 00:12:25;;;;;;;12.20;6.35;;;;;;;6.03;85.83;102708.44;5351590;27;20034;-63
2022/04/30 00:14:57;;;;;;;13.55;5.88;;;;;;;6.09;86.05;102723.28;5349263;27;21462;-63
2022/04/30 00:17:28;;;;;;;11.82;5.30;;;;;;;6.03;85.90;102713.72;5348728;27;20035;-63
2022/04/30 00:20:00;;;;;;;10.13;5.65;;;;;;;5.98;86.42;102720.91;5350987;27;20043;-63
2022/04/30 00:22:31;;;;;;;12.23;6.10;;;;;;;5.99;86.14;102708.56;5345194;27;20429;-63
2022/04/30 00:25:02;;;;;;;9.60;5.50;;;;;;;5.94;86.56;102708.63;5338985;27;20015;-63
2022/04/30 00:27:34;;;;;;;9.20;5.03;;;;;;;5.86;86.32;102713.28;5337404;27;20034;-63
2022/04/30 00:30:06;;;;;;;9.02;5.78;;;;;;;5.86;86.63;102715.94;5336029;27;20030;-63
2022/04/30 00:32:37;;;;;;;10.50;5.28;;;;;;;5.81;86.85;102716.06;5345075;27;20037;-63
2022/04/30 00:35:09;;;;;;;13.68;5.13;;;;;;;5.88;87.67;102708.81;5340950;27;20087;-63
2022/04/30 00:37:41;;;;;;;10.10;5.35;;;;;;;5.73;87.11;102710.06;5342778;27;20113;-63
2022/04/30 00:40:12;;;;;;;10.20;4.95;;;;;;;5.73;87.25;102710.06;5341822;27;20029;-63
2022/04/30 00:42:43;;;;;;;10.10;5.18;;;;;;;5.70;87.63;102710.19;5342928;27;20047;-63
2022/04/30 00:45:15;;;;;;;9.32;5.57;;;;;;;5.74;87.71;102705.69;5337969;27;20026;-63
2022/04/30 00:47:46;;;;;;;9.93;5.28;;;;;;;5.65;88.15;102704.97;5341529;27;20566;-63
2022/04/30 00:50:21;;;;;;;8.98;4.72;;;;;;;5.60;88.02;102703.34;5344709;27;20022;-63
2022/04/30 00:52:53;;;;;;;;;;;;;;;5.63;85.83;102703.28;5349350;27;20025;-63
2022/04/30 00:55:29;;;;;;;7.28;4.63;;;;;;;5.55;88.02;102695.53;5344095;27;19919;-63
2022/04/30 00:58:05;;;;;;;10.55;5.07;;;;;;;5.55;88.28;102697.34;5346924;27;20613;-63
2022/04/30 01:00:38;;;;;;;10.68;5.03;;;;;;;5.47;88.37;102687.81;5340311;27;20025;-63
2022/04/30 01:03:11;;;;;;;9.07;4.75;;;;;;;5.45;88.61;102692.25;5341456;27;20046;-63
2022/04/30 01:05:42;;;;;;;11.75;5.40;;;;;;;5.40;88.84;102682.69;5346918;27;20034;-63
2022/04/30 01:08:13;;;;;;;9.23;5.35;;;;;;;5.48;89.51;102686.91;5343617;27;20480;-63
2022/04/30 01:10:45;;;;;;;13.75;5.50;;;;;;;5.37;89.34;102690.69;5346888;27;20527;-64
2022/04/30 01:13:16;;;;;;;10.05;5.22;;;;;;;5.33;89.77;102691.69;5349370;27;20050;-63
2022/04/30 01:15:50;;;;;;;11.43;5.35;;;;;;;5.30;89.77;102693.50;5343261;27;20034;-63
2022/04/30 01:18:22;;;;;;;10.80;5.88;;;;;;;5.32;90.24;102697.91;5354096;27;20485;-63
2022/04/30 01:20:57;;;;;;;9.52;5.40;;;;;;;5.21;90.51;102693.72;5351945;27;20055;-63
2022/04/30 01:23:28;;;;;;;9.00;5.53;;;;;;;5.18;90.74;102691.19;5353562;27;20411;-63
2022/04/30 01:26:03;;;;;;;9.07;5.32;;;;;;;5.20;90.92;102696.44;5347546;27;20039;-64
2022/04/30 01:28:36;;;;;;;9.50;5.30;;;;;;;5.14;91.22;102691.25;5348843;27;20042;-63
2022/04/30 01:37:22;;;;;;;11.13;5.53;;;;;;;5.10;91.80;102686.06;5347445;27;20030;-63
2022/04/30 01:39:39;;;;;;;10.05;5.88;;;;;;;5.12;92.42;102683.41;5345028;27;20043;-63
2022/04/30 01:42:11;;;;;;;12.43;5.15;;;;;;;5.11;92.74;102682.50;5341903;27;20034;-63
2022/04/30 01:44:46;;;;;;;10.57;5.82;;;;;;;5.09;92.81;102673.72;5343771;27;20060;-63
2022/04/30 01:47:18;;;;;;;8.40;5.30;;;;;;;5.08;92.90;102681.69;5343069;27;20072;-63
2022/04/30 01:49:50;;;;;;;12.13;5.13;;;;;;;5.03;93.00;102683.59;5350642;27;20113;-63
2022/04/30 01:52:21;;;;;;;12.38;6.88;;;;;;;4.99;92.96;102681.94;5352770;27;20081;-63
2022/04/30 01:54:53;;;;;;;9.70;5.30;;;;;;;4.96;93.60;102671.41;5348061;27;20023;-63
2022/04/30 01:57:26;;;;;;;13.23;5.90;;;;;;;4.93;93.92;102677.66;5352973;27;20033;-63
2022/04/30 01:59:59;;;;;;;11.53;5.87;;;;;;;4.91;93.51;102687.41;5342579;27;20091;-63
2022/04/30 02:02:36;;;;;;;11.32;5.70;;;;;;;4.95;94.06;102685.53;5346277;27;20792;-63
2022/04/30 02:05:08;;;;;;;12.43;5.57;;;;;;;4.89;94.34;102671.56;5345629;27;20677;-63
2022/04/30 02:08:03;;;;;;;14.13;6.35;;;;;;;4.90;94.48;102668.00;5346534;27;20579;-63
2022/04/30 02:10:40;;;;;;;14.68;6.30;;;;;;;4.87;94.30;102662.81;5340628;27;20026;-63
2022/04/30 02:13:13;;;;;;;16.35;6.57;;;;;;;4.85;94.50;102664.63;5343216;27;20033;-63
2022/04/30 02:15:46;;;;;;;12.60;6.20;;;;;;;4.75;94.86;102663.06;5340970;27;20031;-63
2022/04/30 02:18:20;;;;;;;9.35;5.50;;;;;;;4.68;95.06;102659.72;5341314;27;20067;-63
2022/04/30 02:20:52;;;;;;;10.52;5.00;;;;;;;4.72;95.02;102661.38;5357012;27;20035;-63
2022/04/30 02:23:24;;;;;;;12.32;6.30;;;;;;;4.70;96.05;102665.84;5356385;27;20601;-63
2022/04/30 02:25:55;;;;;;;12.43;6.40;;;;;;;4.69;96.28;102657.94;5353594;27;20075;-63
2022/04/30 02:28:27;;;;;;;11.43;6.07;;;;;;;4.59;95.74;102661.69;5349100;27;20027;-63
2022/04/30 02:30:58;;;;;;;11.75;6.70;;;;;;;4.63;95.94;102661.56;5351129;27;20106;-63
2022/04/30 02:33:29;;;;;;;15.32;6.38;;;;;;;4.55;96.29;102660.88;5352806;27;20034;-63
2022/04/30 02:36:00;;;;;;;13.82;7.22;;;;;;;4.53;96.12;102654.75;5349556;27;20037;-63
2022/04/30 02:38:32;;;;;;;14.00;7.20;;;;;;;4.51;97.13;102648.66;5356170;27;20364;-63
2022/04/30 02:41:04;;;;;;;13.95;6.80;;;;;;;4.50;97.15;102647.75;5356659;27;20031;-63
2022/04/30 02:43:35;;;;;;;11.82;6.88;;;;;;;4.50;96.95;102642.47;5350544;27;20042;-63
2022/04/30 02:46:06;;;;;;;16.83;7.57;;;;;;;4.48;97.27;102641.63;5354349;27;20027;-63
2022/04/30 02:48:37;;;;;;;15.82;7.35;;;;;;;4.45;98.02;102639.06;5354067;27;20023;-63
2022/04/30 02:51:10;;;;;;;13.30;7.05;;;;;;;4.41;97.81;102642.69;5353616;27;20383;-63
2022/04/30 02:53:43;;;;;;;12.75;6.70;;;;;;;4.40;97.66;102646.22;5347874;27;20035;-63
2022/04/30 02:56:14;;;;;;;14.93;7.03;;;;;;;4.33;97.89;102649.88;5354636;27;20069;-63
2022/04/30 03:01:36;;;;;;;17.00;7.55;;;;;;;4.28;98.16;102647.34;5352617;27;20038;-63
2022/04/30 03:04:07;;;;;;;13.65;7.35;;;;;;;4.24;98.75;102647.47;5351425;27;20027;-63
2022/04/30 03:06:38;;;;;;;12.95;6.90;;;;;;;4.21;99.42;102652.81;5349600;27;20029;-64
2022/04/30 03:09:10;;;;;;;16.02;8.40;;;;;;;4.16;99.49;102652.91;5352931;27;20063;-64
2022/04/30 03:11:42;;;;;;;17.17;7.45;;;;;;;4.13;99.75;102651.19;5348723;27;20039;-64
2022/04/30 03:14:15;;;;;;;15.82;7.57;;;;;;;4.09;99.72;102657.44;5349946;27;20057;-63
2022/04/30 03:22:26;;;;;;;13.48;7.90;;;;;;;4.04;100.00;102650.50;5347724;27;20046;-64
2022/04/30 03:24:57;;;;;;;19.13;9.10;;;;;;;4.03;100.00;102648.78;5349553;27;20055;-64
2022/04/30 03:27:28;;;;;;;13.13;8.02;;;;;;;4.05;100.00;102647.84;5336789;27;20026;-64
2022/04/30 03:30:00;;;;;;;15.77;8.43;;;;;;;4.06;100.00;102644.28;5353928;27;20032;-64
2022/04/30 03:32:31;;;;;;;14.95;7.88;;;;;;;3.99;100.00;102633.88;5342272;27;20035;-64
2022/04/30 03:35:03;;;;;;;14.02;7.97;;;;;;;4.10;100.00;102632.78;5357490;27;20026;-64
2022/04/30 03:37:35;;;;;;;14.20;8.38;;;;;;;4.06;100.00;102630.22;5347669;27;20452;-63
2022/04/30 03:40:06;;;;;;;14.52;7.82;;;;;;;4.05;100.00;102631.13;5317899;27;20281;-64
2022/04/30 03:42:38;;;;;;;19.15;8.63;;;;;;;4.06;100.00;102620.50;5339564;27;20061;-64
2022/04/30 03:45:09;;;;;;;14.38;8.77;;;;;;;4.00;100.00;102619.78;5344455;27;20433;-64
2022/04/30 03:47:41;;;;;;;14.40;8.20;;;;;;;3.99;100.00;102616.28;5350828;27;20103;-64
2022/04/30 03:50:12;;;;;;;17.48;9.00;;;;;;;3.96;100.00;102624.25;5339693;27;20022;-64
2022/04/30 03:52:43;;;;;;;14.00;8.45;;;;;;;3.96;100.00;102620.75;5345183;27;20075;-64
2022/04/30 03:55:15;;;;;;;16.42;9.07;;;;;;;3.94;100.00;102628.69;5345278;27;20030;-64
2022/04/30 03:57:46;;;;;;;17.67;9.65;;;;;;;3.85;100.00;102620.94;5350285;27;20030;-64
2022/04/30 04:00:18;;;;;;;14.88;8.75;;;;;;;3.83;100.00;102625.38;5350532;27;20511;-64
2022/04/30 04:02:49;;;;;;;17.83;9.15;;;;;;;3.80;100.00;102620.19;5338607;27;20508;-64
2022/04/30 04:05:20;;;;;;;16.95;9.23;;;;;;;3.80;100.00;102620.19;5346523;27;20035;-64
2022/04/30 04:07:52;;;;;;;17.20;9.75;;;;;;;3.71;100.00;102623.84;5343986;27;20031;-63
2022/04/30 04:10:24;;;;;;;18.73;9.15;;;;;;;3.79;100.00;102632.50;5352214;27;20054;-63
2022/04/30 04:17:37;;;;;;;20.48;10.02;;;;;;;3.68;100.00;102627.44;5346887;27;20067;-64
2022/04/30 04:18:37;;;;;;;16.40;9.23;;;;;;;3.65;100.00;102631.91;5338973;27;20054;-64
2022/04/30 04:21:08;;;;;;;18.33;9.55;;;;;;;3.62;100.00;102626.66;5340490;27;20031;-63
2022/04/30 04:26:29;;;;;;;16.40;9.70;;;;;;;3.62;100.00;102630.16;5344438;27;20461;-63
2022/04/30 04:29:01;;;;;;;20.73;10.35;;;;;;;3.75;100.00;102627.31;5343081;27;20555;-64
2022/04/30 04:31:32;;;;;;;19.38;10.00;;;;;;;3.76;100.00;102632.56;5342371;27;20536;-63
2022/04/30 04:34:04;;;;;;;17.02;9.90;;;;;;;3.67;100.00;102630.97;5350346;27;20160;-64
2022/04/30 04:36:36;;;;;;;18.80;10.10;;;;;;;3.70;100.00;102632.66;5343484;27;20062;-64
2022/04/30 04:39:12;;;;;;;18.42;9.77;;;;;;;3.72;100.00;102642.31;5354290;27;20395;-64
2022/04/30 04:41:44;;;;;;;17.90;10.32;;;;;;;3.67;100.00;102632.75;5353760;27;20030;-64
2022/04/30 04:44:15;;;;;;;17.98;9.85;;;;;;;3.78;100.00;102637.78;5342813;27;20536;-64
2022/04/30 04:46:47;;;;;;;19.85;10.63;;;;;;;3.75;100.00;102635.25;5353537;27;20030;-64
2022/04/30 04:49:18;;;;;;;16.67;9.38;;;;;;;3.70;100.00;102641.47;5351530;27;20019;-63
2022/04/30 04:51:50;;;;;;;15.82;9.88;;;;;;;3.70;100.00;102638.84;5354431;27;20031;-64
2022/04/30 04:54:21;;;;;;;18.17;9.80;;;;;;;3.67;100.00;102644.16;5353387;27;20023;-63
2022/04/30 04:56:52;;;;;;;17.40;10.25;;;;;;;3.66;100.00;102650.34;5352235;27;20033;-64
2022/04/30 04:59:24;;;;;;;15.93;10.57;;;;;;;3.63;100.00;102658.31;5351778;27;20046;-63
2022/04/30 05:01:55;;;;;;;22.15;10.65;;;;;;;3.68;100.00;102656.47;5351236;27;20164;-63
2022/04/30 05:04:26;;;;;;;21.67;11.57;;;;;;;3.70;100.00;102659.06;5352025;27;20027;-64
2022/04/30 05:06:59;;;;;;;19.08;11.10;;;;;;;3.66;100.00;102662.66;5358553;27;20039;-64
2022/04/30 05:09:31;;;;;;;20.08;10.95;;;;;;;3.67;100.00;102667.06;5350957;27;20035;-64
2022/04/30 05:12:02;;;;;;;20.27;11.45;;;;;;;3.65;100.00;102660.94;5349364;27;20031;-64
2022/04/30 05:14:34;;;;;;;21.67;11.55;;;;;;;3.68;100.00;102669.69;5355492;27;20037;-64
2022/04/30 05:17:08;;;;;;;19.55;11.27;;;;;;;3.70;100.00;102667.88;5354970;27;20026;-63
2022/04/30 05:19:40;;;;;;;18.77;11.07;;;;;;;3.73;100.00;102664.28;5343345;27;20078;-64
2022/04/30 05:22:11;;;;;;;21.17;10.60;;;;;;;3.72;100.00;102662.53;5348369;27;20494;-64
2022/04/30 05:24:42;;;;;;;23.10;11.38;;;;;;;3.76;100.00;102664.25;5352210;27;20069;-63
2022/04/30 05:27:13;;;;;;;23.35;11.50;;;;;;;3.77;100.00;102665.13;5350610;27;20066;-64
2022/04/30 05:29:45;;;;;;;23.05;11.70;;;;;;;3.81;100.00;102665.00;5360615;27;20019;-64
2022/04/30 05:32:16;;;;;;;18.38;11.60;;;;;;;3.85;100.00;102674.63;5351435;27;20023;-63
2022/04/30 05:34:47;;;;;;;24.45;11.93;;;;;;;3.93;100.00;102670.09;5348616;27;20042;-64
2022/04/30 05:37:18;;;;;;;23.23;12.13;;;;;;;3.92;100.00;102668.31;5355473;27;20019;-63
2022/04/30 05:39:50;;;;;;;20.60;11.30;;;;;;;3.98;100.00;102669.97;5355873;27;20110;-64
2022/04/30 05:42:21;;;;;;;20.65;12.38;;;;;;;3.97;100.00;102672.66;5356337;27;20030;-64
2022/04/30 05:44:52;;;;;;;19.65;12.07;;;;;;;4.01;100.00;102669.03;5351467;27;20035;-63
2022/04/30 05:47:24;;;;;;;20.33;12.38;;;;;;;4.01;100.00;102671.69;5356189;27;20538;-64
2022/04/30 05:49:55;;;;;;;19.67;11.10;;;;;;;4.04;100.00;102669.00;5358472;27;20098;-63
2022/04/30 05:52:26;;;;;;;21.80;12.60;;;;;;;4.07;100.00;102674.22;5350317;27;20033;-63
2022/04/30 05:54:57;;;;;;;23.88;12.02;;;;;;;4.12;100.00;102673.22;5355204;27;20090;-64
2022/04/30 05:57:30;;;;;;;20.88;11.65;;;;;;;4.17;100.00;102682.84;5356439;27;20213;-64
2022/04/30 06:00:03;;;;;;;19.55;11.20;;;;;;;4.20;100.00;102675.72;5355868;27;20042;-64
2022/04/30 06:02:35;;;;;;;21.50;11.93;;;;;;;4.27;100.00;102676.44;5349063;27;20027;-63
2022/04/30 06:05:08;;;;;;;20.98;11.85;;;;;;;4.34;100.00;102678.06;5356267;27;20390;-63
2022/04/30 06:07:39;;;;;;;19.85;11.73;;;;;;;4.41;100.00;102678.78;5352287;27;20486;-63
2022/04/30 06:10:10;;;;;;;21.48;12.10;;;;;;;4.50;100.00;102679.47;5354840;27;20035;-63
2022/04/30 06:12:42;;;;;;;24.55;13.52;;;;;;;4.57;100.00;102679.38;5355868;27;20027;-63
2022/04/30 06:15:13;;;;;;;21.52;12.07;;;;;;;4.64;100.00;102679.19;5348755;27;20031;-63
2022/04/30 06:17:44;;;;;;;21.90;12.30;;;;;;;4.72;100.00;102682.53;5349683;27;20038;-64
2022/04/30 06:20:16;;;;;;;22.92;12.63;;;;;;;4.82;100.00;102685.84;5348756;27;20441;-63
2022/04/30 06:22:47;;;;;;;19.70;11.45;;;;;;;4.93;100.00;102690.00;5356181;27;20464;-63
2022/04/30 06:25:18;;;;;;;19.60;11.98;;;;;;;4.98;100.00;102683.69;5355455;27;20114;-63
2022/04/30 06:27:49;;;;;;;19.05;11.55;;;;;;;5.06;100.00;102687.06;5361631;27;20030;-63
2022/04/30 06:30:21;;;;;;;19.27;11.23;;;;;;;5.16;100.00;102685.06;5349598;27;20062;-64
2022/04/30 06:32:52;;;;;;;19.13;11.73;;;;;;;5.25;100.00;102690.13;5348662;27;20031;-64
2022/04/30 06:35:23;;;;;;;19.65;11.70;;;;;;;5.42;100.00;102684.38;5358273;27;20431;-63
2022/04/30 06:37:55;;;;;;;20.02;11.80;;;;;;;5.47;100.00;102682.50;5358965;27;20038;-63
2022/04/30 06:40:26;;;;;;;20.38;11.88;;;;;;;5.59;100.00;102689.25;5357295;27;20038;-63
2022/04/30 06:42:59;;;;;;;19.65;11.88;;;;;;;5.70;100.00;102684.56;5358312;27;20034;-63
2022/04/30 06:45:32;;;;;;;18.90;11.10;;;;;;;5.78;100.00;102683.50;5346934;27;20139;-64
2022/04/30 06:48:03;;;;;;;16.52;10.50;;;;;;;5.94;100.00;102673.34;5352576;27;20022;-64
2022/04/30 06:50:35;;;;;;;19.27;11.23;;;;;;;6.12;100.00;102678.16;5353366;27;20514;-63
2022/04/30 06:58:50;;;;;;;14.95;9.18;;;;;;;6.50;100.00;102684.16;5345246;27;20065;-63
2022/04/30 07:01:41;;;;;;;15.75;9.18;;;;;;;6.60;99.76;102680.28;5352090;27;20035;-64
2022/04/30 07:04:14;;;;;;;16.10;9.82;;;;;;;6.71;99.83;102679.09;5357290;27;20031;-64
2022/04/30 07:06:47;;;;;;;16.83;9.48;;;;;;;6.79;99.57;102677.94;5345337;27;20095;-64
2022/04/30 07:09:18;;;;;;;17.77;9.80;;;;;;;6.89;98.75;102682.97;5351174;27;20027;-64
2022/04/30 07:11:50;;;;;;;16.63;9.15;;;;;;;6.98;97.31;102683.53;5345156;27;20061;-63
2022/04/30 07:14:21;;;;;;;17.30;9.73;;;;;;;7.15;97.40;102682.13;5350535;27;20034;-64
2022/04/30 07:16:52;;;;;;;17.88;9.52;;;;;;;7.23;96.56;102682.75;5347302;27;20102;-64
2022/04/30 07:19:24;;;;;;;16.17;9.48;;;;;;;7.33;95.60;102683.31;5350883;27;20046;-64
2022/04/30 07:21:55;;;;;;;13.43;8.90;;;;;;;7.44;94.96;102686.44;5342763;27;20445;-63
2022/04/30 07:24:27;;;;;;;13.18;8.77;;;;;;;7.61;94.14;102686.78;5348894;27;20413;-64
2022/04/30 07:26:58;;;;;;;15.07;8.40;;;;;;;7.89;92.98;102687.59;5351214;27;20461;-64
2022/04/30 07:29:29;;;;;;;12.02;7.95;;;;;;;7.99;92.02;102692.50;5350119;27;20057;-64
2022/04/30 07:32:01;;;;;;;11.63;7.70;;;;;;;8.18;90.42;102691.84;5347976;27;20157;-64
2022/04/30 07:34:32;;;;;;;15.07;7.60;;;;;;;8.32;88.69;102688.66;5353916;27;20030;-64
2022/04/30 07:37:04;;;;;;;11.70;7.30;;;;;;;8.48;88.06;102683.69;5346959;27;20407;-64
2022/04/30 07:39:35;;;;;;;8.95;6.85;;;;;;;8.71;87.61;102681.00;5357182;27;20142;-64
2022/04/30 07:42:07;;;;;;;11.68;7.32;;;;;;;8.78;85.52;102689.59;5352205;27;20390;-64
2022/04/30 07:44:39;;;;;;;10.68;6.75;;;;;;;8.88;86.01;102679.44;5352675;27;20469;-64
2022/04/30 07:47:10;;;;;;;10.70;6.80;;;;;;;8.98;83.89;102678.19;5346612;27;20039;-64
2022/04/30 07:49:41;;;;;;;10.45;6.18;;;;;;;9.21;81.43;102667.44;5349290;27;20051;-64
2022/04/30 07:52:14;;;;;;;9.50;6.50;;;;;;;9.47;81.80;102670.78;5352475;27;20070;-64
2022/04/30 07:54:45;;;;;;;9.52;6.38;;;;;;;9.55;79.79;102674.03;5332025;27;20844;-63
2022/04/30 07:57:16;;;;;;;10.52;6.55;;;;;;;9.73;79.34;102671.50;5353087;27;20134;-64
2022/04/30 07:59:48;;;;;;;12.13;6.10;;;;;;;10.04;79.24;102665.66;5352469;27;20037;-64
2022/04/30 08:02:19;;;;;;;11.93;6.18;;;;;;;10.21;77.15;102672.91;5353559;27;20141;-64
2022/04/30 08:04:50;;;;;;;8.57;6.13;;;;;;;10.06;75.70;102657.59;5358713;27;20031;-64
2022/04/30 08:07:22;;;;;;;10.20;5.95;;;;;;;10.24;76.95;102667.44;5360600;27;20042;-64
2022/04/30 08:09:53;;;;;;;10.88;5.93;;;;;;;10.27;78.24;102661.94;5362598;27;20055;-64
2022/04/30 08:12:24;;;;;;;11.68;5.55;;;;;;;10.46;76.90;102663.81;5355984;27;20423;-64
2022/04/30 08:14:56;;;;;;;14.02;5.82;;;;;;;10.66;75.73;102658.41;5361747;27;20041;-64
2022/04/30 08:17:30;;;;;;;7.25;5.20;;;;;;;10.85;74.99;102660.16;5353869;27;20033;-64
2022/04/30 08:20:03;;;;;;;8.35;5.55;;;;;;;11.15;73.56;102661.31;5357687;27;20046;-64
2022/04/30 08:22:34;;;;;;;10.75;5.63;;;;;;;11.33;72.42;102656.00;5357408;27;20528;-64
2022/04/30 08:25:06;;;;;;;7.90;4.97;;;;;;;11.63;72.43;102660.72;5357383;27;20030;-64
2022/04/30 08:27:38;;;;;;;8.57;5.13;;;;;;;11.51;68.41;102665.75;5356934;27;20027;-64
2022/04/30 08:30:10;;;;;;;8.25;5.38;;;;;;;11.51;69.05;102663.06;5358781;27;20014;-64
2022/04/30 08:32:41;;;;;;;9.13;5.43;;;;;;;11.23;68.42;102660.94;5361993;27;20035;-64
2022/04/30 08:35:12;;;;;;;7.68;4.90;;;;;;;10.90;68.24;102660.81;5362620;27;20337;-63
2022/04/30 08:37:44;;;;;;;8.00;4.93;;;;;;;10.68;69.92;102659.19;5353809;27;20038;-63
2022/04/30 08:40:16;;;;;;;9.65;5.40;;;;;;;10.45;70.66;102664.72;5361942;27;20019;-63
2022/04/30 08:42:47;;;;;;;9.70;4.82;;;;;;;10.17;71.66;102661.50;5357871;27;20484;-63
2022/04/30 08:45:22;;;;;;;10.15;4.78;;;;;;;10.18;72.67;102655.25;5360640;27;20062;-63
2022/04/30 08:47:53;;;;;;;11.25;5.30;;;;;;;10.08;72.08;102648.56;5353374;27;20483;-63
2022/04/30 08:50:25;;;;;;;9.77;5.53;;;;;;;10.16;73.53;102648.22;5356084;27;20030;-63
2022/04/30 08:52:57;;;;;;;8.43;5.10;;;;;;;10.11;72.25;102651.13;5359334;27;20030;-63
2022/04/30 08:55:28;;;;;;;7.90;4.93;;;;;;;10.22;71.95;102655.97;5359573;27;20038;-63
2022/04/30 08:58:00;;;;;;;7.80;5.25;;;;;;;10.35;72.09;102648.28;5355587;27;20405;-63
2022/04/30 09:00:42;;;;;;;8.15;5.60;;;;;;;10.36;71.51;102642.03;5348814;27;20076;-63
2022/04/30 09:03:19;;;;;;;9.48;5.65;;;;;;;10.53;71.66;102646.56;5358398;27;20059;-63
2022/04/30 09:05:50;;;;;;;10.20;5.53;;;;;;;10.64;70.97;102646.88;5358443;27;20143;-63
2022/04/30 09:08:22;;;;;;;16.85;6.68;;;;;;;10.84;70.87;102645.94;5353839;27;20113;-63
2022/04/30 09:11:04;;;;;;;9.35;5.60;;;;;;;11.05;70.81;102637.81;5353457;27;20019;-63
2022/04/30 09:13:43;;;;;;;7.82;4.95;;;;;;;11.14;71.57;102640.00;5360075;27;20473;-63
2022/04/30 09:16:20;;;;;;;9.00;4.97;;;;;;;11.14;68.80;102640.00;5358417;27;20033;-63
2022/04/30 09:18:55;;;;;;;8.07;4.60;;;;;;;11.21;67.39;102640.59;5360258;27;20492;-63
2022/04/30 09:21:26;;;;;;;9.27;4.70;;;;;;;11.16;67.04;102640.81;5360554;27;20035;-63
2022/04/30 09:24:04;;;;;;;8.07;4.82;;;;;;;11.27;67.84;102646.47;5358535;27;20026;-64
2022/04/30 09:26:42;;;;;;;7.97;4.90;;;;;;;11.24;67.10;102638.63;5360265;27;20034;-63
2022/04/30 09:29:22;;;;;;;10.15;5.07;;;;;;;11.28;67.49;102637.53;5357664;27;20037;-63
2022/04/30 09:31:53;;;;;;;10.85;5.30;;;;;;;11.27;65.85;102629.59;5353282;27;20038;-63
2022/04/30 09:37:41;;;;;;;9.18;5.57;;;;;;;11.19;68.11;102630.81;5360087;27;20471;-63
2022/04/30 09:40:12;;;;;;;8.23;5.47;;;;;;;11.12;66.57;102628.53;5358198;27;20033;-63
2022/04/30 09:42:48;;;;;;;8.40;5.32;;;;;;;11.14;66.39;102622.19;5358461;27;20026;-63
2022/04/30 09:45:31;;;;;;;8.95;5.82;;;;;;;11.23;66.91;102620.84;5350354;27;20026;-63
2022/04/30 09:54:02;;;;;;;7.65;4.22;;;;;;;11.45;62.90;102622.41;5356743;27;20092;-64
2022/04/30 09:56:37;;;;;;;8.43;4.53;;;;;;;11.71;62.87;102613.03;5359806;27;20109;-63
2022/04/30 09:59:10;;;;;;;8.70;4.85;;;;;;;11.98;63.87;102610.72;5360293;27;20027;-64
2022/04/30 10:01:43;;;;;;;7.60;4.75;;;;;;;12.19;62.45;102614.03;5355368;27;20027;-64
2022/04/30 10:04:17;;;;;;;8.75;5.03;;;;;;;12.23;61.56;102607.56;5350731;27;20118;-65
2022/04/30 10:06:50;;;;;;;9.13;4.40;;;;;;;12.39;60.07;102606.72;5354826;27;20214;-64
2022/04/30 10:09:26;;;;;;;8.07;3.97;;;;;;;12.15;57.42;102605.31;5358407;27;20027;-64
2022/04/30 10:12:16;;;;;;;7.93;4.35;;;;;;;12.43;58.80;102614.50;5360693;27;20069;-64
2022/04/30 10:15:19;;;;;;;7.03;3.92;;;;;;;12.48;57.91;102603.53;5354252;27;20030;-64
2022/04/30 10:17:56;;;;;;;5.50;3.88;;;;;;;12.58;57.98;102595.84;5354607;27;20230;-64
2022/04/30 10:20:33;;;;;;;6.45;3.85;;;;;;;12.57;58.03;102594.13;5355322;27;20053;-64
2022/04/30 10:23:06;;;;;;;6.93;4.20;;;;;;;12.31;56.32;102596.44;5359853;27;20134;-64
2022/04/30 10:25:46;;;;;;;6.30;4.03;;;;;;;12.49;57.02;102590.06;5359445;27;20106;-64
2022/04/30 10:28:17;;;;;;;5.85;3.92;;;;;;;12.69;58.54;102586.22;5353358;27;20031;-64
2022/04/30 10:31:04;;;;;;;6.53;4.30;;;;;;;12.80;56.54;102587.44;5354150;27;20467;-64
2022/04/30 10:33:49;;;;;;;7.75;4.32;;;;;;;12.61;55.91;102593.84;5354993;27;20038;-64
2022/04/30 10:36:21;;;;;;;6.75;3.90;;;;;;;12.36;54.85;102592.56;5348674;27;20074;-64
2022/04/30 10:38:55;;;;;;;4.47;3.30;;;;;;;12.31;55.74;102591.97;5352499;27;20030;-64
2022/04/30 10:41:26;;;;;;;5.40;2.90;;;;;;;12.35;54.27;102585.50;5361536;27;20514;-64
2022/04/30 10:44:02;;;;;;;7.20;3.38;;;;;;;12.34;53.63;102582.91;5347967;27;20022;-64
2022/04/30 10:46:38;;;;;;;5.03;3.10;;;;;;;12.18;53.71;102585.56;5346316;27;20491;-64
2022/04/30 10:49:09;;;;;;;6.55;3.17;;;;;;;12.01;54.87;102572.28;5352451;27;20053;-64
2022/04/30 10:51:43;;;;;;;4.68;2.67;;;;;;;12.31;53.17;102573.25;5355466;27;20110;-64
2022/04/30 10:54:18;;;;;;;5.63;2.90;;;;;;;12.43;52.06;102560.97;5357376;27;20731;-64
2022/04/30 10:57:01;;;;;;;7.15;2.70;;;;;;;12.53;50.18;102566.66;5357464;27;20101;-64
2022/04/30 10:59:32;;;;;;;6.90;2.80;;;;;;;12.65;53.46;102554.38;5352037;27;20068;-64
2022/04/30 11:02:04;;;;;;;7.95;2.95;;;;;;;13.08;52.32;102549.19;5361228;27;20504;-64
2022/04/30 11:04:35;;;;;;;5.35;2.67;;;;;;;13.20;50.66;102545.75;5354488;27;20038;-65
2022/04/30 11:07:08;;;;;;;5.82;2.97;;;;;;;13.50;51.95;102545.75;5351414;27;20510;-65
2022/04/30 11:09:43;;;;;;;6.22;3.30;;;;;;;13.51;50.36;102550.13;5350369;27;20023;-64
2022/04/30 11:12:14;;;;;;;5.50;3.38;;;;;;;13.55;52.81;102539.22;5344637;27;20033;-65
2022/04/30 11:14:46;;;;;;;5.43;3.58;;;;;;;13.39;53.27;102540.16;5348380;27;20026;-64
2022/04/30 11:17:18;;;;;;;8.65;3.50;;;;;;;13.32;51.80;102528.09;5349722;27;20087;-64
2022/04/30 11:19:49;;;;;;;5.53;3.70;;;;;;;13.23;51.81;102525.94;5346699;27;20046;-66
2022/04/30 11:22:20;;;;;;;6.47;3.63;;;;;;;13.13;51.06;102528.31;5355077;27;20732;-65
2022/04/30 11:24:57;;;;;;;7.05;3.42;;;;;;;13.29;52.12;102521.06;5348166;27;20202;-65
2022/04/30 11:27:31;;;;;;;5.50;3.22;;;;;;;13.47;51.17;102519.09;5335181;27;20022;-65
2022/04/30 11:30:04;;;;;;;7.45;3.30;;;;;;;13.25;49.75;102514.19;5353157;27;20380;-65
2022/04/30 11:32:35;;;;;;;6.88;3.63;;;;;;;13.47;50.05;102516.41;5358247;27;20030;-65
2022/04/30 11:35:07;;;;;;;6.43;3.40;;;;;;;13.57;48.45;102516.69;5352197;27;20038;-66
2022/04/30 11:37:42;;;;;;;6.18;3.28;;;;;;;13.52;52.02;102511.63;5347484;27;20030;-65
2022/04/30 11:40:14;;;;;;;6.07;3.60;;;;;;;13.83;50.56;102507.03;5352459;27;20016;-65
2022/04/30 11:42:57;;;;;;;9.43;3.58;;;;;;;13.85;49.68;102504.25;5347212;27;20070;-65
2022/04/30 11:45:32;;;;;;;4.90;3.33;;;;;;;13.64;47.07;102506.47;5349664;27;20532;-65
2022/04/30 11:48:03;;;;;;;5.28;3.38;;;;;;;13.64;46.95;102498.44;5354687;27;20388;-65
2022/04/30 11:50:40;;;;;;;5.72;3.65;;;;;;;13.68;49.02;102510.69;5355074;27;20027;-64
2022/04/30 11:53:11;;;;;;;8.80;4.50;;;;;;;13.60;49.53;102502.25;5356706;27;20392;-65
2022/04/30 11:55:42;;;;;;;10.73;5.45;;;;;;;13.52;52.78;102498.22;5353481;27;20030;-65
2022/04/30 11:58:13;;;;;;;8.40;5.35;;;;;;;13.24;51.19;102511.59;5357117;27;20036;-65
2022/04/30 12:00:45;;;;;;;8.85;5.28;;;;;;;13.03;52.87;102509.25;5348701;27;20169;-65
2022/04/30 12:03:25;;;;;;;8.80;5.20;;;;;;;12.99;54.71;102507.72;5350642;27;20423;-64
2022/04/30 12:05:57;;;;;;;7.95;5.13;;;;;;;12.58;54.11;102499.44;5348850;27;20139;-65
2022/04/30 12:08:29;;;;;;;8.75;5.30;;;;;;;12.45;55.36;102502.84;5349231;27;20063;-65
2022/04/30 12:11:00;;;;;;;10.18;5.65;;;;;;;12.23;56.58;102508.56;5356262;27;20015;-65
2022/04/30 12:13:32;;;;;;;8.95;5.40;;;;;;;12.12;55.82;102500.31;5358571;27;20041;-65
2022/04/30 12:16:05;;;;;;;9.15;5.00;;;;;;;11.92;57.07;102510.28;5359811;27;20054;-65
2022/04/30 12:24:45;;;;;;;9.50;5.75;;;;;;;11.76;58.86;102501.34;5359152;27;20109;-65
2022/04/30 12:27:21;;;;;;;10.82;6.25;;;;;;;11.80;59.59;102499.38;5357341;27;20066;-65
2022/04/30 12:30:14;;;;;;;9.20;5.32;;;;;;;11.71;59.42;102501.59;5357485;27;20476;-65